createdAt,value
2024-03-02T00:00:57.451Z,27.10
2024-03-02T00:03:26.126Z,27.87
2024-03-02T00:05:54.463Z,27.00
2024-03-02T00:08:27.676Z,27.60
2024-03-02T00:11:01.128Z,27.10
2024-03-02T00:13:29.461Z,27.23
2024-03-02T00:15:58.869Z,26.30
2024-03-02T00:18:35.860Z,28.00
2024-03-02T00:21:04.688Z,26.03
2024-03-02T00:23:33.240Z,28.47
2024-03-02T00:26:01.994Z,29.47
2024-03-02T00:28:39.741Z,25.20
2024-03-02T00:31:14.236Z,27.03
2024-03-02T00:33:51.115Z,27.37
2024-03-02T00:36:27.173Z,26.60
2024-03-02T00:38:57.686Z,25.13
2024-03-02T00:41:27.512Z,26.40
2024-03-02T00:44:07.390Z,27.77
2024-03-02T00:46:42.740Z,25.70
2024-03-02T00:49:23.294Z,26.37
2024-03-02T00:51:54.087Z,25.57
2024-03-02T00:54:25.835Z,27.17
2024-03-02T00:56:56.604Z,26.03
2024-03-02T00:59:25.634Z,26.23
2024-03-02T01:01:55.198Z,27.13
2024-03-02T01:04:23.690Z,27.20
2024-03-02T01:06:51.566Z,26.73
2024-03-02T01:09:20.993Z,27.43
2024-03-02T01:11:49.368Z,26.70
2024-03-02T01:14:17.582Z,27.50
2024-03-02T01:16:45.896Z,26.50
2024-03-02T01:19:14.213Z,26.63
2024-03-02T01:21:42.537Z,26.57
2024-03-02T01:24:10.790Z,25.47
2024-03-02T01:26:39.068Z,26.87
2024-03-02T01:29:07.285Z,25.70
2024-03-02T01:31:35.586Z,25.67
2024-03-02T01:34:04.124Z,25.07
2024-03-02T01:36:32.517Z,24.13
2024-03-02T01:39:00.789Z,26.23
2024-03-02T01:41:28.985Z,23.93
2024-03-02T01:43:57.262Z,26.57
2024-03-02T01:46:25.775Z,25.13
2024-03-02T01:48:54.319Z,25.93
2024-03-02T01:51:22.818Z,25.67
2024-03-02T01:53:51.064Z,24.23
2024-03-02T01:56:19.372Z,24.33
2024-03-02T01:58:47.605Z,25.20
2024-03-02T02:01:16.011Z,22.60
2024-03-02T02:03:44.318Z,23.33
2024-03-02T02:06:12.863Z,21.83
2024-03-02T02:08:41.097Z,22.70
2024-03-02T02:11:09.456Z,22.77
2024-03-02T02:13:37.779Z,21.30
2024-03-02T02:16:09.559Z,21.63
2024-03-02T02:18:37.998Z,19.47
2024-03-02T02:21:05.969Z,21.50
2024-03-02T02:23:34.180Z,20.07
2024-03-02T02:26:03.897Z,19.83
2024-03-02T02:28:34.789Z,19.37
2024-03-02T02:31:04.142Z,18.93
2024-03-02T02:33:32.522Z,19.83
2024-03-02T02:36:00.750Z,19.70
2024-03-02T02:38:28.956Z,20.00
2024-03-02T02:40:57.181Z,20.20
2024-03-02T02:43:25.367Z,20.40
2024-03-02T02:45:53.846Z,20.00
2024-03-02T02:48:22.233Z,18.60
2024-03-02T02:50:51.548Z,19.53
2024-03-02T02:53:20.304Z,19.40
2024-03-02T02:55:48.562Z,19.27
2024-03-02T02:58:16.876Z,19.23
2024-03-02T03:00:45.229Z,19.20
2024-03-02T03:03:13.500Z,20.20
2024-03-02T03:05:41.706Z,18.40
2024-03-02T03:08:09.928Z,18.37
2024-03-02T03:10:38.198Z,18.33
2024-03-02T03:13:09.244Z,17.93
2024-03-02T03:15:38.421Z,18.17
2024-03-02T03:18:07.386Z,17.27
2024-03-02T03:20:35.865Z,17.80
2024-03-02T03:23:05.022Z,17.77
2024-03-02T03:25:33.558Z,18.97
2024-03-02T03:28:04.198Z,17.93
2024-03-02T03:30:32.532Z,18.00
2024-03-02T03:33:00.837Z,17.90
2024-03-02T03:35:29.063Z,16.83
2024-03-02T03:37:57.242Z,18.23
2024-03-02T03:40:25.160Z,16.50
2024-03-02T03:42:53.380Z,16.97
2024-03-02T03:45:24.545Z,17.60
2024-03-02T03:47:52.820Z,16.57
2024-03-02T03:50:21.050Z,17.33
2024-03-02T03:52:49.283Z,18.57
2024-03-02T03:55:17.509Z,17.73
2024-03-02T03:57:45.557Z,17.10
2024-03-02T04:00:14.342Z,17.03
2024-03-02T04:02:42.776Z,17.70
2024-03-02T04:05:12.051Z,17.73
2024-03-02T04:07:41.826Z,17.73
2024-03-02T04:10:13.865Z,15.63
2024-03-02T04:12:42.378Z,16.37
2024-03-02T04:15:10.721Z,16.90
2024-03-02T04:17:39.040Z,16.33
2024-03-02T04:20:07.700Z,16.20
2024-03-02T04:22:36.733Z,16.47
2024-03-02T04:25:05.848Z,16.03
2024-03-02T04:27:34.620Z,16.93
2024-03-02T04:30:03.255Z,16.27
2024-03-02T04:32:31.540Z,16.73
2024-03-02T04:35:00.069Z,17.40
2024-03-02T04:37:28.374Z,16.73
2024-03-02T04:39:56.591Z,17.10
2024-03-02T04:42:25.877Z,16.17
2024-03-02T04:44:54.023Z,16.40
2024-03-02T04:47:22.343Z,16.20
2024-03-02T04:49:50.592Z,17.03
2024-03-02T04:52:19.294Z,15.87
2024-03-02T04:55:05.182Z,16.10
2024-03-02T04:57:33.476Z,16.63
2024-03-02T05:00:02.020Z,17.63
2024-03-02T05:02:30.224Z,15.90
2024-03-02T05:04:58.412Z,16.67
2024-03-02T05:07:26.617Z,16.67
2024-03-02T05:09:54.862Z,17.00
2024-03-02T05:12:48.392Z,16.93
2024-03-02T05:15:17.289Z,16.27
2024-03-02T05:17:45.866Z,16.17
2024-03-02T05:20:14.290Z,16.97
2024-03-02T05:22:42.614Z,15.97
2024-03-02T05:25:10.869Z,15.17
2024-03-02T05:27:39.280Z,16.63
2024-03-02T05:30:08.578Z,17.43
2024-03-02T05:32:36.955Z,15.47
2024-03-02T05:35:06.155Z,16.47
2024-03-02T05:37:34.971Z,16.27
2024-03-02T05:40:03.809Z,17.73
2024-03-02T05:42:32.130Z,16.67
2024-03-02T05:45:00.560Z,16.13
2024-03-02T05:47:29.003Z,16.37
2024-03-02T05:49:57.295Z,16.67
2024-03-02T05:52:25.518Z,17.73
2024-03-02T05:54:53.846Z,18.07
2024-03-02T05:57:35.068Z,18.63
2024-03-02T06:00:05.691Z,17.23
2024-03-02T06:02:35.697Z,17.10
2024-03-02T06:05:04.993Z,17.30
2024-03-02T06:07:33.264Z,17.20
2024-03-02T06:10:01.836Z,17.07
2024-03-02T06:12:30.174Z,16.17
2024-03-02T06:14:58.449Z,17.80
2024-03-02T06:17:26.697Z,17.93
2024-03-02T06:19:54.956Z,17.60
2024-03-02T06:22:24.055Z,17.20
2024-03-02T06:24:52.637Z,17.43
2024-03-02T06:27:21.640Z,18.80
2024-03-02T06:29:49.945Z,17.83
2024-03-02T06:32:18.180Z,17.60
2024-03-02T06:34:46.393Z,18.07
2024-03-02T06:37:14.667Z,18.73
2024-03-02T06:39:42.931Z,17.13
2024-03-02T06:42:11.156Z,16.97
2024-03-02T06:44:39.359Z,19.23
2024-03-02T06:47:07.745Z,19.20
2024-03-02T06:49:36.458Z,18.83
2024-03-02T06:52:04.389Z,18.23
2024-03-02T06:54:32.780Z,19.33
2024-03-02T06:57:11.079Z,19.67
2024-03-02T06:59:39.367Z,19.77
2024-03-02T07:02:07.861Z,18.13
2024-03-02T07:04:36.145Z,19.73
2024-03-02T07:07:04.491Z,19.00
2024-03-02T07:09:32.899Z,19.37
2024-03-02T07:12:01.692Z,19.07
2024-03-02T07:14:56.562Z,17.83
2024-03-02T07:17:24.516Z,18.73
2024-03-02T07:19:52.815Z,18.70
2024-03-02T07:22:21.061Z,18.73
2024-03-02T07:24:49.592Z,18.83
2024-03-02T07:27:18.561Z,18.77
2024-03-02T07:29:46.848Z,18.23
2024-03-02T07:32:15.024Z,19.77
2024-03-02T07:34:43.244Z,19.97
2024-03-02T07:37:11.644Z,20.47
2024-03-02T07:39:40.232Z,20.93
2024-03-02T07:42:08.501Z,19.37
2024-03-02T07:44:37.113Z,18.93
2024-03-02T07:47:06.102Z,18.70
2024-03-02T07:49:34.335Z,19.30
2024-03-02T07:52:02.718Z,18.53
2024-03-02T07:54:31.139Z,19.07
2024-03-02T07:56:59.852Z,17.97
2024-03-02T07:59:28.068Z,18.90
2024-03-02T08:01:57.286Z,18.67
2024-03-02T08:04:25.771Z,18.33
2024-03-02T08:06:55.564Z,17.73
2024-03-02T08:09:23.921Z,17.60
2024-03-02T08:11:52.151Z,18.23
2024-03-02T08:14:20.524Z,16.93
2024-03-02T08:16:48.781Z,17.90
2024-03-02T08:19:17.150Z,18.47
2024-03-02T08:21:46.090Z,19.93
2024-03-02T08:24:14.373Z,17.70
2024-03-02T08:26:44.773Z,19.50
2024-03-02T08:29:13.903Z,16.57
2024-03-02T08:31:42.534Z,17.60
2024-03-02T08:34:11.369Z,17.77
2024-03-02T08:36:40.142Z,18.37
2024-03-02T08:39:16.256Z,18.30
2024-03-02T08:41:48.425Z,19.43
2024-03-02T08:44:16.924Z,18.83
2024-03-02T08:46:45.523Z,18.10
2024-03-02T08:49:14.139Z,18.53
2024-03-02T08:51:42.442Z,18.63
2024-03-02T08:54:10.932Z,18.50
2024-03-02T08:56:39.235Z,19.63
2024-03-02T08:59:07.457Z,17.83
2024-03-02T09:01:35.908Z,17.43
2024-03-02T09:04:04.248Z,17.43
2024-03-02T09:06:32.498Z,18.23
2024-03-02T09:09:00.761Z,17.37
2024-03-02T09:11:29.179Z,18.67
2024-03-02T09:13:58.897Z,17.17
2024-03-02T09:16:31.805Z,17.80
2024-03-02T09:19:01.392Z,18.50
2024-03-02T09:21:31.115Z,18.47
2024-03-02T09:23:59.510Z,16.47
2024-03-02T09:26:27.721Z,17.83
2024-03-02T09:28:55.960Z,17.50
2024-03-02T09:31:24.179Z,17.93
2024-03-02T09:33:52.456Z,17.90
2024-03-02T09:36:22.203Z,19.00
2024-03-02T09:38:50.610Z,17.30
2024-03-02T09:41:19.143Z,17.10
2024-03-02T09:43:47.451Z,19.47
2024-03-02T09:46:15.813Z,16.67
2024-03-02T09:48:44.057Z,16.50
2024-03-02T09:51:14.078Z,16.13
2024-03-02T09:53:42.641Z,16.30
2024-03-02T09:56:10.881Z,16.10
2024-03-02T09:58:40.316Z,15.63
2024-03-02T10:01:08.848Z,16.40
2024-03-02T10:03:37.460Z,16.03
2024-03-02T10:06:32.159Z,16.23
2024-03-02T10:09:00.393Z,16.67
2024-03-02T10:11:38.721Z,15.73
2024-03-02T10:14:14.882Z,16.63
2024-03-02T10:16:47.949Z,15.20
2024-03-02T10:19:25.216Z,15.20
2024-03-02T10:21:55.638Z,15.10
2024-03-02T10:24:25.294Z,14.33
2024-03-02T10:26:54.182Z,15.07
2024-03-02T10:29:30.859Z,14.17
2024-03-02T10:32:02.630Z,14.10
2024-03-02T10:34:30.879Z,14.57
2024-03-02T10:37:02.938Z,14.37
2024-03-02T10:39:32.511Z,14.13
2024-03-02T10:42:01.315Z,12.60
2024-03-02T10:44:29.774Z,12.87
2024-03-02T10:46:58.424Z,13.30
2024-03-02T10:49:29.023Z,12.80
2024-03-02T10:51:57.315Z,11.83
2024-03-02T10:54:27.979Z,11.87
2024-03-02T10:56:58.273Z,11.97
2024-03-02T10:59:31.752Z,11.30
2024-03-02T11:02:05.520Z,12.30
2024-03-02T11:04:35.989Z,10.37
2024-03-02T11:07:10.896Z,9.63
2024-03-02T11:10:09.564Z,8.53
2024-03-02T11:13:07.011Z,7.90
2024-03-02T11:15:38.819Z,7.27
2024-03-02T11:18:11.978Z,6.80
2024-03-02T11:20:43.982Z,9.03
2024-03-02T11:23:12.482Z,8.20
2024-03-02T11:25:41.046Z,8.70
2024-03-02T11:28:10.774Z,9.33
2024-03-02T11:30:40.988Z,8.23
2024-03-02T11:33:11.047Z,9.30
2024-03-02T11:35:44.801Z,8.57
2024-03-02T11:38:20.217Z,10.13
2024-03-02T11:40:48.452Z,9.83
2024-03-02T11:43:16.989Z,10.07
2024-03-02T11:45:51.052Z,9.27
2024-03-02T11:48:19.252Z,8.90
2024-03-02T11:50:52.955Z,8.37
2024-03-02T11:53:25.391Z,8.00
2024-03-02T11:56:01.783Z,8.90
2024-03-02T11:58:31.992Z,10.17
2024-03-02T12:01:00.308Z,8.60
2024-03-02T12:03:29.037Z,8.87
2024-03-02T12:05:58.120Z,9.47
2024-03-02T12:08:26.399Z,9.20
2024-03-02T12:11:17.263Z,9.87
2024-03-02T12:14:03.073Z,9.73
2024-03-02T12:16:31.355Z,9.50
2024-03-02T12:18:59.739Z,8.10
2024-03-02T12:21:32.970Z,7.93
2024-03-02T12:24:03.664Z,7.10
2024-03-02T12:26:32.299Z,8.80
2024-03-02T12:29:00.714Z,8.20
2024-03-02T12:31:28.897Z,6.80
2024-03-02T12:33:57.716Z,6.60
2024-03-02T12:36:26.232Z,8.53
2024-03-02T12:38:58.119Z,6.83
2024-03-02T12:41:32.860Z,6.33
2024-03-02T12:44:01.482Z,7.10
2024-03-02T12:46:30.219Z,7.57
2024-03-02T12:48:58.658Z,7.03
2024-03-02T12:51:27.350Z,7.90
2024-03-02T12:53:57.335Z,8.20
2024-03-02T12:56:28.875Z,8.10
2024-03-02T12:58:57.589Z,7.63
2024-03-02T13:01:25.902Z,8.30
2024-03-02T13:03:56.232Z,7.43
2024-03-02T13:06:35.802Z,8.17
2024-03-02T13:09:04.925Z,7.10
2024-03-02T13:11:33.225Z,7.73
2024-03-02T13:14:02.930Z,6.60
2024-03-02T13:16:33.265Z,6.77
2024-03-02T13:19:13.831Z,6.83
2024-03-02T13:21:42.133Z,6.83
2024-03-02T13:24:10.382Z,6.80
2024-03-02T13:26:38.831Z,5.60
2024-03-02T13:29:07.068Z,6.60
2024-03-02T13:31:35.302Z,6.10
2024-03-02T13:34:03.700Z,5.43
2024-03-02T13:36:32.010Z,6.00
2024-03-02T13:39:00.991Z,6.40
2024-03-02T13:41:29.196Z,5.27
2024-03-02T13:43:57.440Z,6.13
2024-03-02T13:46:25.754Z,7.67
2024-03-02T13:48:54.086Z,6.90
2024-03-02T13:51:22.318Z,7.30
2024-03-02T13:53:50.787Z,6.80
2024-03-02T13:56:18.979Z,7.50
2024-03-02T13:58:47.217Z,7.53
2024-03-02T14:01:15.914Z,7.57
2024-03-02T14:03:44.228Z,8.07
2024-03-02T14:06:12.557Z,7.50
2024-03-02T14:08:40.753Z,7.70
2024-03-02T14:11:10.270Z,7.37
2024-03-02T14:13:38.549Z,8.60
2024-03-02T14:16:07.246Z,6.97
2024-03-02T14:18:35.632Z,7.23
2024-03-02T14:21:04.953Z,6.97
2024-03-02T14:23:33.179Z,7.07
2024-03-02T14:26:01.568Z,6.50
2024-03-02T14:28:47.337Z,7.17
2024-03-02T14:31:18.659Z,6.77
2024-03-02T14:33:46.992Z,6.97
2024-03-02T14:36:15.578Z,6.20
2024-03-02T14:38:43.839Z,7.40
2024-03-02T14:41:12.192Z,6.37
2024-03-02T14:43:40.424Z,6.43
2024-03-02T14:46:10.446Z,5.63
2024-03-02T14:48:39.268Z,6.13
2024-03-02T14:51:07.662Z,5.80
2024-03-02T14:53:36.585Z,5.83
2024-03-02T14:56:05.378Z,5.60
2024-03-02T14:58:33.640Z,5.50
2024-03-02T15:01:01.949Z,5.77
2024-03-02T15:03:30.312Z,5.90
2024-03-02T15:05:58.603Z,5.90
2024-03-02T15:08:26.866Z,5.07
2024-03-02T15:10:56.933Z,5.60
2024-03-02T15:13:25.975Z,5.17
2024-03-02T15:15:54.405Z,4.77
2024-03-02T15:18:22.681Z,4.93
2024-03-02T15:20:51.011Z,4.30
2024-03-02T15:23:18.841Z,4.53
2024-03-02T15:25:47.715Z,4.87
2024-03-02T15:28:15.993Z,4.50
2024-03-02T15:30:45.998Z,4.77
2024-03-02T15:33:14.280Z,4.60
2024-03-02T15:35:42.520Z,5.10
2024-03-02T15:38:21.972Z,5.00
2024-03-02T15:40:56.969Z,4.97
2024-03-02T15:43:25.570Z,5.03
2024-03-02T15:45:53.835Z,5.23
2024-03-02T15:48:22.108Z,5.10
2024-03-02T15:50:51.256Z,5.50
2024-03-02T15:53:19.454Z,5.13
2024-03-02T15:55:47.996Z,5.70
2024-03-02T15:58:16.227Z,5.77
2024-03-02T16:00:44.587Z,6.00
2024-03-02T16:03:13.089Z,6.70
2024-03-02T16:05:43.962Z,6.27
2024-03-02T16:08:12.365Z,5.93
2024-03-02T16:10:40.641Z,5.83
2024-03-02T16:13:08.969Z,5.13
2024-03-02T16:15:37.579Z,5.27
2024-03-02T16:18:06.106Z,5.80
2024-03-02T16:20:34.830Z,6.07
2024-03-02T16:23:03.144Z,6.10
2024-03-02T16:25:32.131Z,6.40
2024-03-02T16:28:02.513Z,6.80
2024-03-02T16:30:30.824Z,7.07
2024-03-02T16:32:59.744Z,7.77
2024-03-02T16:35:28.220Z,6.87
2024-03-02T16:37:56.473Z,7.03
2024-03-02T16:40:24.709Z,8.20
2024-03-02T16:42:53.363Z,7.03
2024-03-02T16:45:21.622Z,7.37
2024-03-02T16:47:50.415Z,8.30
2024-03-02T16:50:18.691Z,8.20
2024-03-02T16:52:47.205Z,8.60
2024-03-02T16:55:15.836Z,9.93
2024-03-02T16:57:44.239Z,9.53
2024-03-02T17:00:12.972Z,9.00
2024-03-02T17:02:41.455Z,9.50
2024-03-02T17:05:09.965Z,9.00
2024-03-02T17:07:38.231Z,10.27
2024-03-02T17:10:07.245Z,10.30
2024-03-02T17:12:35.620Z,10.43
2024-03-02T17:15:05.458Z,9.97
2024-03-02T17:17:33.937Z,12.23
2024-03-02T17:20:02.652Z,12.37
2024-03-02T17:22:32.526Z,12.73
2024-03-02T17:25:00.999Z,12.50
2024-03-02T17:27:31.769Z,13.47
2024-03-02T17:30:00.539Z,13.93
2024-03-02T17:32:29.410Z,13.97
2024-03-02T17:35:00.266Z,14.60
2024-03-02T17:37:28.981Z,14.43
2024-03-02T17:39:57.264Z,16.47
2024-03-02T17:42:26.955Z,14.90
2024-03-02T17:44:55.211Z,16.53
2024-03-02T17:47:23.461Z,15.67
2024-03-02T17:49:51.729Z,15.77
2024-03-02T17:52:20.052Z,16.43
2024-03-02T17:54:48.311Z,16.83
2024-03-02T17:57:16.641Z,17.20
2024-03-02T17:59:45.756Z,17.67
2024-03-02T18:02:14.057Z,16.37
2024-03-02T18:04:43.184Z,17.50
2024-03-02T18:07:11.551Z,17.37
2024-03-02T18:09:39.854Z,16.40
2024-03-02T18:12:08.505Z,17.07
2024-03-02T18:14:40.307Z,17.57
2024-03-02T18:17:08.870Z,17.17
2024-03-02T18:19:36.794Z,17.60
2024-03-02T18:22:05.093Z,18.60
2024-03-02T18:24:37.471Z,18.07
2024-03-02T18:27:06.167Z,18.13
2024-03-02T18:29:34.516Z,18.00
2024-03-02T18:32:04.480Z,19.07
2024-03-02T18:34:33.583Z,19.67
2024-03-02T18:37:03.394Z,19.00
2024-03-02T18:39:31.744Z,20.90
2024-03-02T18:42:00.301Z,20.10
2024-03-02T18:44:28.637Z,21.03
2024-03-02T18:46:56.844Z,20.70
2024-03-02T18:49:27.847Z,21.00
2024-03-02T18:51:56.394Z,20.73
2024-03-02T18:54:24.650Z,21.23
2024-03-02T18:56:53.202Z,21.87
2024-03-02T18:59:21.559Z,23.63
2024-03-02T19:01:50.318Z,23.03
2024-03-02T19:04:19.642Z,22.57
2024-03-02T19:06:47.888Z,23.87
2024-03-02T19:09:16.411Z,24.77
2024-03-02T19:11:44.674Z,23.83
2024-03-02T19:14:12.892Z,24.33
2024-03-02T19:16:41.453Z,24.73
2024-03-02T19:19:09.693Z,24.33
2024-03-02T19:21:38.130Z,24.73
2024-03-02T19:24:06.469Z,25.67
2024-03-02T19:26:34.729Z,26.63
2024-03-02T19:29:02.900Z,26.57
2024-03-02T19:31:31.149Z,25.30
2024-03-02T19:33:59.510Z,25.27
2024-03-02T19:36:29.058Z,27.20
2024-03-02T19:38:57.403Z,25.23
2024-03-02T19:41:25.716Z,27.30
2024-03-02T19:43:54.184Z,27.13
2024-03-02T19:46:23.838Z,27.63
2024-03-02T19:48:52.141Z,27.73
2024-03-02T19:51:20.460Z,28.77
2024-03-02T19:53:48.665Z,26.33
2024-03-02T19:56:21.255Z,29.10
2024-03-02T19:58:49.460Z,28.43
2024-03-02T20:01:20.673Z,26.87
2024-03-02T20:03:51.107Z,28.47
2024-03-02T20:06:22.181Z,28.03
2024-03-02T20:08:50.850Z,26.80
2024-03-02T20:11:19.248Z,27.40
2024-03-02T20:13:47.480Z,28.07
2024-03-02T20:16:21.554Z,25.67
2024-03-02T20:18:50.800Z,26.93
2024-03-02T20:21:19.105Z,25.47
2024-03-02T20:23:47.336Z,26.73
2024-03-02T20:26:16.969Z,25.07
2024-03-02T20:28:46.269Z,27.33
2024-03-02T20:31:16.165Z,26.37
2024-03-02T20:33:44.522Z,24.57
2024-03-02T20:36:16.621Z,25.83
2024-03-02T20:38:45.136Z,27.63
2024-03-02T20:41:20.205Z,26.47
2024-03-02T20:43:48.873Z,25.93
2024-03-02T20:46:17.223Z,26.50
2024-03-02T20:48:47.336Z,29.13
2024-03-02T20:51:15.775Z,29.10
2024-03-02T20:53:43.989Z,27.57
2024-03-02T20:56:12.733Z,27.83
2024-03-02T20:58:42.317Z,26.57
2024-03-02T21:01:12.408Z,26.80
2024-03-02T21:03:41.619Z,28.50
2024-03-02T21:06:10.057Z,28.40
2024-03-02T21:08:38.440Z,28.97
2024-03-02T21:11:07.330Z,28.93
2024-03-02T21:13:35.610Z,29.37
2024-03-02T21:16:04.376Z,29.70
2024-03-02T21:18:32.730Z,29.20
2024-03-02T21:21:01.054Z,31.97
2024-03-02T21:23:30.415Z,29.60
2024-03-02T21:25:58.724Z,30.33
2024-03-02T21:28:27.154Z,30.77
2024-03-02T21:30:55.415Z,31.27
2024-03-02T21:33:23.502Z,31.93
2024-03-02T21:35:51.765Z,30.97
2024-03-02T21:38:19.964Z,31.10
2024-03-02T21:40:49.816Z,28.37
2024-03-02T21:43:18.527Z,30.10
2024-03-02T21:45:47.089Z,31.20
2024-03-02T21:48:15.357Z,31.48
2024-03-02T21:50:44.359Z,30.90
2024-03-02T21:53:13.647Z,31.63
2024-03-02T21:55:42.048Z,29.70
2024-03-02T21:58:10.385Z,31.90
2024-03-02T22:00:39.800Z,29.47
2024-03-02T22:03:08.267Z,29.30
2024-03-02T22:05:36.974Z,29.93
2024-03-02T22:08:05.296Z,29.27
2024-03-02T22:10:33.755Z,30.07
2024-03-02T22:13:01.815Z,28.90
2024-03-02T22:15:30.339Z,29.87
2024-03-02T22:18:01.575Z,30.23
2024-03-02T22:20:29.786Z,29.87
2024-03-02T22:22:58.553Z,30.23
2024-03-02T22:25:26.859Z,31.00
2024-03-02T22:27:56.936Z,30.00
2024-03-02T22:30:27.357Z,30.57
2024-03-02T22:32:57.305Z,28.93
2024-03-02T22:35:26.645Z,28.90
2024-03-02T22:37:55.268Z,28.90
2024-03-02T22:40:26.031Z,28.10
2024-03-02T22:42:54.430Z,28.60
2024-03-02T22:45:22.659Z,27.93
2024-03-02T22:47:51.672Z,28.60
2024-03-02T22:50:19.960Z,27.90
2024-03-02T22:52:48.192Z,28.27
2024-03-02T22:55:16.654Z,26.83
2024-03-02T22:57:45.076Z,28.37
2024-03-02T23:00:32.237Z,29.27
2024-03-02T23:03:01.086Z,26.67
2024-03-02T23:05:30.261Z,26.77
2024-03-02T23:07:58.727Z,28.23
2024-03-02T23:10:27.083Z,27.80
2024-03-02T23:12:55.449Z,28.87
2024-03-02T23:15:24.313Z,29.37
2024-03-02T23:17:52.538Z,29.20
2024-03-02T23:20:20.733Z,28.53
2024-03-02T23:22:49.023Z,29.40
2024-03-02T23:25:17.313Z,28.93
2024-03-02T23:27:45.648Z,27.67
2024-03-02T23:30:13.986Z,30.47
2024-03-02T23:32:42.441Z,27.33
2024-03-02T23:35:10.389Z,27.40
2024-03-02T23:37:38.633Z,28.03
2024-03-02T23:40:36.673Z,27.87
2024-03-02T23:43:04.446Z,27.60
2024-03-02T23:45:33.045Z,27.80
2024-03-02T23:48:01.727Z,27.13
2024-03-02T23:50:29.973Z,26.97
2024-03-02T23:52:58.157Z,27.10
2024-03-02T23:55:36.142Z,27.10
2024-03-02T23:58:11.214Z,27.87
